sensor_id;sensor_type;location;lat;lon;timestamp;temperature;humidity
65573;SHT30;52214;50.940;13.996;2022-11-15T00:00:46;4.95;99.99
65573;SHT30;52214;50.940;13.996;2022-11-15T00:03:16;5.08;99.99
65573;SHT30;52214;50.940;13.996;2022-11-15T00:05:42;5.15;99.99
65573;SHT30;52214;50.940;13.996;2022-11-15T00:08:08;5.09;99.99
65573;SHT30;52214;50.940;13.996;2022-11-15T00:10:34;4.98;99.99
65573;SHT30;52214;50.940;13.996;2022-11-15T00:12:59;5.07;99.99
65573;SHT30;52214;50.940;13.996;2022-11-15T00:15:25;5.09;99.99
65573;SHT30;52214;50.940;13.996;2022-11-15T00:17:50;5.31;99.99
65573;SHT30;52214;50.940;13.996;2022-11-15T00:20:17;5.25;99.99
65573;SHT30;52214;50.940;13.996;2022-11-15T00:22:42;5.08;99.99
65573;SHT30;52214;50.940;13.996;2022-11-15T00:25:08;5.01;99.99
65573;SHT30;52214;50.940;13.996;2022-11-15T00:27:33;4.83;99.99
65573;SHT30;52214;50.940;13.996;2022-11-15T00:30:00;4.90;99.99
65573;SHT30;52214;50.940;13.996;2022-11-15T00:32:26;4.74;99.99
65573;SHT30;52214;50.940;13.996;2022-11-15T00:34:51;5.07;99.99
65573;SHT30;52214;50.940;13.996;2022-11-15T00:37:17;5.18;99.99
65573;SHT30;52214;50.940;13.996;2022-11-15T00:39:42;5.25;99.99
65573;SHT30;52214;50.940;13.996;2022-11-15T00:42:08;5.32;99.99
65573;SHT30;52214;50.940;13.996;2022-11-15T00:44:33;5.38;99.99
65573;SHT30;52214;50.940;13.996;2022-11-15T00:46:59;5.46;99.99
65573;SHT30;52214;50.940;13.996;2022-11-15T00:49:24;5.45;99.99
65573;SHT30;52214;50.940;13.996;2022-11-15T00:51:50;5.52;99.99
65573;SHT30;52214;50.940;13.996;2022-11-15T00:54:15;5.56;99.99
65573;SHT30;52214;50.940;13.996;2022-11-15T00:56:41;5.70;99.99
65573;SHT30;52214;50.940;13.996;2022-11-15T00:59:06;5.86;99.99
65573;SHT30;52214;50.940;13.996;2022-11-15T01:01:32;6.02;99.99
65573;SHT30;52214;50.940;13.996;2022-11-15T01:03:57;6.17;99.99
65573;SHT30;52214;50.940;13.996;2022-11-15T01:06:23;6.26;99.99
65573;SHT30;52214;50.940;13.996;2022-11-15T01:08:48;6.26;99.99
65573;SHT30;52214;50.940;13.996;2022-11-15T01:11:14;6.32;99.99
65573;SHT30;52214;50.940;13.996;2022-11-15T01:13:40;6.25;99.99
65573;SHT30;52214;50.940;13.996;2022-11-15T01:16:12;6.22;99.99
65573;SHT30;52214;50.940;13.996;2022-11-15T01:18:39;6.14;99.99
65573;SHT30;52214;50.940;13.996;2022-11-15T01:21:11;6.02;99.99
65573;SHT30;52214;50.940;13.996;2022-11-15T01:23:37;5.97;99.99
65573;SHT30;52214;50.940;13.996;2022-11-15T01:26:05;5.98;99.99
65573;SHT30;52214;50.940;13.996;2022-11-15T01:28:32;5.98;99.99
65573;SHT30;52214;50.940;13.996;2022-11-15T01:30:59;6.10;99.99
65573;SHT30;52214;50.940;13.996;2022-11-15T01:33:25;6.07;99.99
65573;SHT30;52214;50.940;13.996;2022-11-15T01:35:51;6.05;99.99
65573;SHT30;52214;50.940;13.996;2022-11-15T01:38:16;6.08;99.99
65573;SHT30;52214;50.940;13.996;2022-11-15T01:40:42;6.11;99.99
65573;SHT30;52214;50.940;13.996;2022-11-15T01:43:23;6.25;99.99
65573;SHT30;52214;50.940;13.996;2022-11-15T01:45:54;6.25;99.99
65573;SHT30;52214;50.940;13.996;2022-11-15T01:48:22;6.29;99.99
65573;SHT30;52214;50.940;13.996;2022-11-15T01:50:51;6.29;99.99
65573;SHT30;52214;50.940;13.996;2022-11-15T01:53:19;6.32;99.99
65573;SHT30;52214;50.940;13.996;2022-11-15T01:55:45;6.32;99.99
65573;SHT30;52214;50.940;13.996;2022-11-15T01:58:11;6.32;99.99
65573;SHT30;52214;50.940;13.996;2022-11-15T02:00:36;6.26;99.99
65573;SHT30;52214;50.940;13.996;2022-11-15T02:03:02;6.35;99.99
65573;SHT30;52214;50.940;13.996;2022-11-15T02:05:29;6.32;99.99
65573;SHT30;52214;50.940;13.996;2022-11-15T02:07:55;6.35;99.99
65573;SHT30;52214;50.940;13.996;2022-11-15T02:10:23;6.26;99.99
65573;SHT30;52214;50.940;13.996;2022-11-15T02:12:49;6.24;99.99
65573;SHT30;52214;50.940;13.996;2022-11-15T02:15:15;6.14;99.99
65573;SHT30;52214;50.940;13.996;2022-11-15T02:21:19;6.14;99.99
65573;SHT30;52214;50.940;13.996;2022-11-15T02:23:27;6.15;99.99
65573;SHT30;52214;50.940;13.996;2022-11-15T02:29:06;6.08;99.99
65573;SHT30;52214;50.940;13.996;2022-11-15T02:32:03;5.95;99.99
65573;SHT30;52214;50.940;13.996;2022-11-15T02:37:18;5.81;99.99
65573;SHT30;52214;50.940;13.996;2022-11-15T02:39:49;5.70;99.99
65573;SHT30;52214;50.940;13.996;2022-11-15T02:42:35;5.77;99.99
65573;SHT30;52214;50.940;13.996;2022-11-15T02:45:32;5.75;99.99
65573;SHT30;52214;50.940;13.996;2022-11-15T02:47:59;5.77;99.99
65573;SHT30;52214;50.940;13.996;2022-11-15T02:50:29;5.80;99.99
65573;SHT30;52214;50.940;13.996;2022-11-15T02:52:55;5.71;99.99
65573;SHT30;52214;50.940;13.996;2022-11-15T02:55:32;5.75;99.99
65573;SHT30;52214;50.940;13.996;2022-11-15T03:01:24;5.84;99.99
65573;SHT30;52214;50.940;13.996;2022-11-15T03:06:39;5.95;99.99
65573;SHT30;52214;50.940;13.996;2022-11-15T03:09:30;5.97;99.99
65573;SHT30;52214;50.940;13.996;2022-11-15T03:12:07;5.87;99.99
65573;SHT30;52214;50.940;13.996;2022-11-15T03:15:00;5.69;99.99
65573;SHT30;52214;50.940;13.996;2022-11-15T03:17:30;5.73;99.99
65573;SHT30;52214;50.940;13.996;2022-11-15T03:20:01;5.73;99.99
65573;SHT30;52214;50.940;13.996;2022-11-15T03:22:29;5.77;99.99
65573;SHT30;52214;50.940;13.996;2022-11-15T03:24:58;5.74;99.99
65573;SHT30;52214;50.940;13.996;2022-11-15T03:27:27;5.78;99.99
65573;SHT30;52214;50.940;13.996;2022-11-15T03:29:59;5.80;99.99
65573;SHT30;52214;50.940;13.996;2022-11-15T03:32:28;5.73;99.99
65573;SHT30;52214;50.940;13.996;2022-11-15T03:35:06;5.66;99.99
65573;SHT30;52214;50.940;13.996;2022-11-15T03:38:05;5.73;99.99
65573;SHT30;52214;50.940;13.996;2022-11-15T03:40:38;5.63;99.99
65573;SHT30;52214;50.940;13.996;2022-11-15T03:45:45;5.56;99.99
65573;SHT30;52214;50.940;13.996;2022-11-15T03:48:18;5.47;99.99
65573;SHT30;52214;50.940;13.996;2022-11-15T03:50:45;5.43;99.99
65573;SHT30;52214;50.940;13.996;2022-11-15T03:53:12;5.36;99.99
65573;SHT30;52214;50.940;13.996;2022-11-15T03:55:38;5.32;99.99
65573;SHT30;52214;50.940;13.996;2022-11-15T03:58:03;5.21;99.99
65573;SHT30;52214;50.940;13.996;2022-11-15T04:00:29;5.19;99.99
65573;SHT30;52214;50.940;13.996;2022-11-15T04:02:55;5.19;99.99
65573;SHT30;52214;50.940;13.996;2022-11-15T04:05:20;5.27;99.99
65573;SHT30;52214;50.940;13.996;2022-11-15T04:07:46;5.40;99.99
65573;SHT30;52214;50.940;13.996;2022-11-15T04:10:12;5.39;99.99
65573;SHT30;52214;50.940;13.996;2022-11-15T04:12:40;5.35;99.99
65573;SHT30;52214;50.940;13.996;2022-11-15T04:15:13;5.28;99.99
65573;SHT30;52214;50.940;13.996;2022-11-15T04:17:47;5.21;99.99
65573;SHT30;52214;50.940;13.996;2022-11-15T04:20:17;5.28;99.99
65573;SHT30;52214;50.940;13.996;2022-11-15T04:23:03;5.31;99.99
65573;SHT30;52214;50.940;13.996;2022-11-15T04:25:51;5.35;99.99
65573;SHT30;52214;50.940;13.996;2022-11-15T04:28:17;5.29;99.99
65573;SHT30;52214;50.940;13.996;2022-11-15T04:30:43;5.29;99.99
65573;SHT30;52214;50.940;13.996;2022-11-15T04:33:09;5.25;99.99
65573;SHT30;52214;50.940;13.996;2022-11-15T04:35:34;5.25;99.99
65573;SHT30;52214;50.940;13.996;2022-11-15T04:38:01;5.17;99.99
65573;SHT30;52214;50.940;13.996;2022-11-15T04:40:27;5.14;99.99
65573;SHT30;52214;50.940;13.996;2022-11-15T04:42:53;5.11;99.99
65573;SHT30;52214;50.940;13.996;2022-11-15T04:45:19;5.09;99.99
65573;SHT30;52214;50.940;13.996;2022-11-15T04:47:45;5.17;99.99
65573;SHT30;52214;50.940;13.996;2022-11-15T04:50:12;5.08;99.99
65573;SHT30;52214;50.940;13.996;2022-11-15T04:52:42;5.05;99.99
65573;SHT30;52214;50.940;13.996;2022-11-15T04:55:09;5.04;99.99
65573;SHT30;52214;50.940;13.996;2022-11-15T04:57:34;5.04;99.99
65573;SHT30;52214;50.940;13.996;2022-11-15T05:00:00;5.07;99.99
65573;SHT30;52214;50.940;13.996;2022-11-15T05:02:26;5.12;99.99
65573;SHT30;52214;50.940;13.996;2022-11-15T05:05:11;5.07;99.99
65573;SHT30;52214;50.940;13.996;2022-11-15T05:07:37;5.04;99.99
65573;SHT30;52214;50.940;13.996;2022-11-15T05:10:03;5.02;99.99
65573;SHT30;52214;50.940;13.996;2022-11-15T05:12:28;4.91;99.99
65573;SHT30;52214;50.940;13.996;2022-11-15T05:14:54;4.88;99.99
65573;SHT30;52214;50.940;13.996;2022-11-15T05:17:19;4.91;99.99
65573;SHT30;52214;50.940;13.996;2022-11-15T05:19:45;4.88;99.99
65573;SHT30;52214;50.940;13.996;2022-11-15T05:22:10;4.90;99.99
65573;SHT30;52214;50.940;13.996;2022-11-15T05:24:36;4.91;99.99
65573;SHT30;52214;50.940;13.996;2022-11-15T05:27:01;4.84;99.99
65573;SHT30;52214;50.940;13.996;2022-11-15T05:29:27;4.83;99.99
65573;SHT30;52214;50.940;13.996;2022-11-15T05:31:52;4.79;99.99
65573;SHT30;52214;50.940;13.996;2022-11-15T05:34:18;4.85;99.99
65573;SHT30;52214;50.940;13.996;2022-11-15T05:36:44;4.80;99.99
65573;SHT30;52214;50.940;13.996;2022-11-15T05:41:44;4.83;99.99
65573;SHT30;52214;50.940;13.996;2022-11-15T05:44:11;4.73;99.99
65573;SHT30;52214;50.940;13.996;2022-11-15T05:49:07;4.64;99.99
65573;SHT30;52214;50.940;13.996;2022-11-15T05:51:35;4.74;99.99
65573;SHT30;52214;50.940;13.996;2022-11-15T05:54:01;4.63;99.99
65573;SHT30;52214;50.940;13.996;2022-11-15T05:56:28;4.79;99.99
65573;SHT30;52214;50.940;13.996;2022-11-15T05:58:55;4.69;99.99
65573;SHT30;52214;50.940;13.996;2022-11-15T06:01:22;4.66;99.99
65573;SHT30;52214;50.940;13.996;2022-11-15T06:03:47;4.73;99.99
65573;SHT30;52214;50.940;13.996;2022-11-15T06:06:13;4.72;99.99
65573;SHT30;52214;50.940;13.996;2022-11-15T06:08:38;4.76;99.99
65573;SHT30;52214;50.940;13.996;2022-11-15T06:11:05;4.76;99.99
65573;SHT30;52214;50.940;13.996;2022-11-15T06:13:31;4.64;99.99
65573;SHT30;52214;50.940;13.996;2022-11-15T06:15:57;4.83;99.99
65573;SHT30;52214;50.940;13.996;2022-11-15T06:18:22;4.88;99.99
65573;SHT30;52214;50.940;13.996;2022-11-15T06:20:48;4.94;99.99
65573;SHT30;52214;50.940;13.996;2022-11-15T06:23:14;4.94;99.99
65573;SHT30;52214;50.940;13.996;2022-11-15T06:25:39;4.91;99.99
65573;SHT30;52214;50.940;13.996;2022-11-15T06:28:05;4.95;99.99
65573;SHT30;52214;50.940;13.996;2022-11-15T06:30:30;4.91;99.99
65573;SHT30;52214;50.940;13.996;2022-11-15T06:33:04;4.88;99.99
65573;SHT30;52214;50.940;13.996;2022-11-15T06:35:33;5.00;99.99
65573;SHT30;52214;50.940;13.996;2022-11-15T06:38:07;5.08;99.99
65573;SHT30;52214;50.940;13.996;2022-11-15T06:40:34;5.09;99.99
65573;SHT30;52214;50.940;13.996;2022-11-15T06:43:00;5.12;99.99
65573;SHT30;52214;50.940;13.996;2022-11-15T06:45:26;5.02;99.99
65573;SHT30;52214;50.940;13.996;2022-11-15T06:47:52;5.09;99.99
65573;SHT30;52214;50.940;13.996;2022-11-15T06:50:18;5.14;99.99
65573;SHT30;52214;50.940;13.996;2022-11-15T06:52:43;5.14;99.99
65573;SHT30;52214;50.940;13.996;2022-11-15T06:55:09;5.17;99.99
65573;SHT30;52214;50.940;13.996;2022-11-15T06:57:36;5.24;99.99
65573;SHT30;52214;50.940;13.996;2022-11-15T07:00:04;5.28;99.99
65573;SHT30;52214;50.940;13.996;2022-11-15T07:02:30;5.36;99.99
65573;SHT30;52214;50.940;13.996;2022-11-15T07:04:55;5.36;99.99
65573;SHT30;52214;50.940;13.996;2022-11-15T07:07:21;5.46;99.99
65573;SHT30;52214;50.940;13.996;2022-11-15T07:09:46;5.34;99.99
65573;SHT30;52214;50.940;13.996;2022-11-15T07:12:12;5.53;99.99
65573;SHT30;52214;50.940;13.996;2022-11-15T07:14:38;5.47;99.99
65573;SHT30;52214;50.940;13.996;2022-11-15T07:17:04;5.59;99.99
65573;SHT30;52214;50.940;13.996;2022-11-15T07:19:30;5.69;99.99
65573;SHT30;52214;50.940;13.996;2022-11-15T07:21:56;5.70;99.99
65573;SHT30;52214;50.940;13.996;2022-11-15T07:24:21;5.84;99.99
65573;SHT30;52214;50.940;13.996;2022-11-15T07:26:47;5.89;99.99
65573;SHT30;52214;50.940;13.996;2022-11-15T07:29:12;5.95;99.99
65573;SHT30;52214;50.940;13.996;2022-11-15T07:31:38;5.97;99.99
65573;SHT30;52214;50.940;13.996;2022-11-15T07:34:04;6.07;99.99
65573;SHT30;52214;50.940;13.996;2022-11-15T07:36:29;6.15;99.99
65573;SHT30;52214;50.940;13.996;2022-11-15T07:38:55;6.25;99.99
65573;SHT30;52214;50.940;13.996;2022-11-15T07:41:20;6.35;99.99
65573;SHT30;52214;50.940;13.996;2022-11-15T07:43:46;6.35;99.99
65573;SHT30;52214;50.940;13.996;2022-11-15T07:46:11;6.43;99.99
65573;SHT30;52214;50.940;13.996;2022-11-15T07:48:38;6.46;99.99
65573;SHT30;52214;50.940;13.996;2022-11-15T07:51:07;6.56;99.99
65573;SHT30;52214;50.940;13.996;2022-11-15T07:53:32;6.56;99.99
65573;SHT30;52214;50.940;13.996;2022-11-15T07:55:58;6.53;99.99
65573;SHT30;52214;50.940;13.996;2022-11-15T07:58:23;6.62;99.99
65573;SHT30;52214;50.940;13.996;2022-11-15T08:00:49;6.72;99.99
65573;SHT30;52214;50.940;13.996;2022-11-15T08:03:16;6.81;99.99
65573;SHT30;52214;50.940;13.996;2022-11-15T08:05:43;6.90;99.99
65573;SHT30;52214;50.940;13.996;2022-11-15T08:08:10;7.00;99.99
65573;SHT30;52214;50.940;13.996;2022-11-15T08:10:36;7.02;99.99
65573;SHT30;52214;50.940;13.996;2022-11-15T08:13:05;7.12;99.99
65573;SHT30;52214;50.940;13.996;2022-11-15T08:15:31;7.28;99.99
65573;SHT30;52214;50.940;13.996;2022-11-15T08:17:59;7.23;99.99
65573;SHT30;52214;50.940;13.996;2022-11-15T08:20:26;7.38;99.99
65573;SHT30;52214;50.940;13.996;2022-11-15T08:22:56;7.49;99.99
65573;SHT30;52214;50.940;13.996;2022-11-15T08:25:23;7.49;99.99
65573;SHT30;52214;50.940;13.996;2022-11-15T08:27:53;7.59;99.99
65573;SHT30;52214;50.940;13.996;2022-11-15T08:30:18;7.71;99.99
65573;SHT30;52214;50.940;13.996;2022-11-15T08:32:44;7.70;99.99
65573;SHT30;52214;50.940;13.996;2022-11-15T08:35:10;7.90;99.99
65573;SHT30;52214;50.940;13.996;2022-11-15T08:37:36;8.05;99.99
65573;SHT30;52214;50.940;13.996;2022-11-15T08:40:02;8.05;99.67
65573;SHT30;52214;50.940;13.996;2022-11-15T08:42:28;8.21;99.77
65573;SHT30;52214;50.940;13.996;2022-11-15T08:44:54;8.22;99.97
65573;SHT30;52214;50.940;13.996;2022-11-15T08:47:19;8.32;99.52
65573;SHT30;52214;50.940;13.996;2022-11-15T08:49:45;8.46;98.29
65573;SHT30;52214;50.940;13.996;2022-11-15T08:52:10;8.42;99.39
65573;SHT30;52214;50.940;13.996;2022-11-15T08:54:36;8.61;98.45
65573;SHT30;52214;50.940;13.996;2022-11-15T08:57:01;8.70;97.67
65573;SHT30;52214;50.940;13.996;2022-11-15T08:59:27;8.80;97.22
65573;SHT30;52214;50.940;13.996;2022-11-15T09:01:52;8.83;96.58
65573;SHT30;52214;50.940;13.996;2022-11-15T09:04:18;8.80;96.60
65573;SHT30;52214;50.940;13.996;2022-11-15T09:06:43;8.98;96.58
65573;SHT30;52214;50.940;13.996;2022-11-15T09:09:09;9.15;95.76
65573;SHT30;52214;50.940;13.996;2022-11-15T09:11:35;9.36;95.58
65573;SHT30;52214;50.940;13.996;2022-11-15T09:14:01;9.80;93.04
65573;SHT30;52214;50.940;13.996;2022-11-15T09:16:26;9.80;92.08
65573;SHT30;52214;50.940;13.996;2022-11-15T09:18:53;9.70;92.07
65573;SHT30;52214;50.940;13.996;2022-11-15T09:21:19;9.53;92.90
65573;SHT30;52214;50.940;13.996;2022-11-15T09:23:45;9.35;93.58
65573;SHT30;52214;50.940;13.996;2022-11-15T09:26:11;9.22;93.59
65573;SHT30;52214;50.940;13.996;2022-11-15T09:28:37;9.29;93.54
65573;SHT30;52214;50.940;13.996;2022-11-15T09:31:05;9.25;94.41
65573;SHT30;52214;50.940;13.996;2022-11-15T09:33:31;9.38;93.58
65573;SHT30;52214;50.940;13.996;2022-11-15T09:36:05;9.74;93.49
65573;SHT30;52214;50.940;13.996;2022-11-15T09:38:32;9.87;92.26
65573;SHT30;52214;50.940;13.996;2022-11-15T09:46:48;9.50;92.56
65573;SHT30;52214;50.940;13.996;2022-11-15T09:49:20;9.46;93.46
65573;SHT30;52214;50.940;13.996;2022-11-15T09:51:49;9.43;94.11
65573;SHT30;52214;50.940;13.996;2022-11-15T09:54:37;9.43;93.77
65573;SHT30;52214;50.940;13.996;2022-11-15T09:57:18;9.42;94.78
65573;SHT30;52214;50.940;13.996;2022-11-15T10:00:19;9.56;93.62
65573;SHT30;52214;50.940;13.996;2022-11-15T10:03:16;9.74;93.70
65573;SHT30;52214;50.940;13.996;2022-11-15T10:05:46;9.75;94.14
65573;SHT30;52214;50.940;13.996;2022-11-15T10:11:07;9.97;93.10
65573;SHT30;52214;50.940;13.996;2022-11-15T10:13:35;9.99;92.56
65573;SHT30;52214;50.940;13.996;2022-11-15T10:24:43;10.32;91.36
65573;SHT30;52214;50.940;13.996;2022-11-15T10:27:12;10.47;90.01
65573;SHT30;52214;50.940;13.996;2022-11-15T10:29:47;10.50;90.57
65573;SHT30;52214;50.940;13.996;2022-11-15T10:32:14;10.71;90.25
65573;SHT30;52214;50.940;13.996;2022-11-15T10:34:40;10.63;88.43
65573;SHT30;52214;50.940;13.996;2022-11-15T10:37:06;10.73;90.32
65573;SHT30;52214;50.940;13.996;2022-11-15T10:39:32;10.73;89.79
65573;SHT30;52214;50.940;13.996;2022-11-15T10:42:26;11.11;88.62
65573;SHT30;52214;50.940;13.996;2022-11-15T10:44:52;11.64;86.87
65573;SHT30;52214;50.940;13.996;2022-11-15T10:47:31;12.40;83.58
65573;SHT30;52214;50.940;13.996;2022-11-15T10:50:01;12.88;81.27
65573;SHT30;52214;50.940;13.996;2022-11-15T10:52:28;13.47;78.87
65573;SHT30;52214;50.940;13.996;2022-11-15T10:54:59;14.25;76.73
65573;SHT30;52214;50.940;13.996;2022-11-15T10:57:33;14.60;75.51
65573;SHT30;52214;50.940;13.996;2022-11-15T11:00:25;14.45;75.74
65573;SHT30;52214;50.940;13.996;2022-11-15T11:05:41;14.18;76.88
65573;SHT30;52214;50.940;13.996;2022-11-15T11:10:53;13.52;78.17
65573;SHT30;52214;50.940;13.996;2022-11-15T11:18:56;13.66;79.15
65573;SHT30;52214;50.940;13.996;2022-11-15T11:35:20;15.36;71.66
65573;SHT30;52214;50.940;13.996;2022-11-15T11:40:42;17.21;66.93
65573;SHT30;52214;50.940;13.996;2022-11-15T11:43:26;18.11;63.66
65573;SHT30;52214;50.940;13.996;2022-11-15T11:48:41;18.42;63.01
65573;SHT30;52214;50.940;13.996;2022-11-15T11:51:13;18.53;62.54
65573;SHT30;52214;50.940;13.996;2022-11-15T11:54:12;19.10;60.68
65573;SHT30;52214;50.940;13.996;2022-11-15T11:56:41;18.67;60.57
65573;SHT30;52214;50.940;13.996;2022-11-15T11:59:36;18.74;61.07
65573;SHT30;52214;50.940;13.996;2022-11-15T12:02:40;19.04;61.08
65573;SHT30;52214;50.940;13.996;2022-11-15T12:05:42;18.49;60.78
65573;SHT30;52214;50.940;13.996;2022-11-15T12:08:29;18.45;60.48
65573;SHT30;52214;50.940;13.996;2022-11-15T12:13:44;19.14;58.36
65573;SHT30;52214;50.940;13.996;2022-11-15T12:16:28;20.46;55.77
65573;SHT30;52214;50.940;13.996;2022-11-15T12:18:58;19.72;56.78
65573;SHT30;52214;50.940;13.996;2022-11-15T12:23:53;19.44;57.36
65573;SHT30;52214;50.940;13.996;2022-11-15T12:26:26;18.96;59.06
65573;SHT30;52214;50.940;13.996;2022-11-15T12:28:58;20.18;55.32
65573;SHT30;52214;50.940;13.996;2022-11-15T12:34:29;19.61;57.95
65573;SHT30;52214;50.940;13.996;2022-11-15T12:36:59;18.53;59.37
65573;SHT30;52214;50.940;13.996;2022-11-15T12:43:04;19.29;56.84
65573;SHT30;52214;50.940;13.996;2022-11-15T12:53:30;18.56;57.77
65573;SHT30;52214;50.940;13.996;2022-11-15T13:07:01;18.51;58.54
65573;SHT30;52214;50.940;13.996;2022-11-15T13:12:09;17.57;60.89
65573;SHT30;52214;50.940;13.996;2022-11-15T13:14:44;18.01;59.26
65573;SHT30;52214;50.940;13.996;2022-11-15T13:20:31;17.83;59.72
65573;SHT30;52214;50.940;13.996;2022-11-15T13:31:13;17.32;60.50
65573;SHT30;52214;50.940;13.996;2022-11-15T13:33:42;16.52;62.50
65573;SHT30;52214;50.940;13.996;2022-11-15T13:36:20;17.03;61.06
65573;SHT30;52214;50.940;13.996;2022-11-15T13:39:04;15.79;63.18
65573;SHT30;52214;50.940;13.996;2022-11-15T13:41:46;15.83;63.63
65573;SHT30;52214;50.940;13.996;2022-11-15T13:44:20;16.51;62.49
65573;SHT30;52214;50.940;13.996;2022-11-15T13:46:47;16.22;62.95
65573;SHT30;52214;50.940;13.996;2022-11-15T13:49:12;16.12;62.94
65573;SHT30;52214;50.940;13.996;2022-11-15T13:51:42;15.50;64.68
65573;SHT30;52214;50.940;13.996;2022-11-15T13:54:14;15.80;64.26
65573;SHT30;52214;50.940;13.996;2022-11-15T13:56:46;15.55;64.66
65573;SHT30;52214;50.940;13.996;2022-11-15T13:59:20;15.07;65.85
65573;SHT30;52214;50.940;13.996;2022-11-15T14:01:50;14.35;66.96
65573;SHT30;52214;50.940;13.996;2022-11-15T14:04:19;14.11;67.63
65573;SHT30;52214;50.940;13.996;2022-11-15T14:06:48;13.97;68.73
65573;SHT30;52214;50.940;13.996;2022-11-15T14:09:38;13.78;68.28
65573;SHT30;52214;50.940;13.996;2022-11-15T14:12:27;13.50;69.67
65573;SHT30;52214;50.940;13.996;2022-11-15T14:14:53;13.08;70.12
65573;SHT30;52214;50.940;13.996;2022-11-15T14:19:55;12.72;71.45
65573;SHT30;52214;50.940;13.996;2022-11-15T14:22:26;12.53;72.09
65573;SHT30;52214;50.940;13.996;2022-11-15T14:25:20;12.52;72.76
65573;SHT30;52214;50.940;13.996;2022-11-15T14:28:12;12.76;72.05
65573;SHT30;52214;50.940;13.996;2022-11-15T14:30:39;12.24;73.26
65573;SHT30;52214;50.940;13.996;2022-11-15T14:35:56;11.81;74.49
65573;SHT30;52214;50.940;13.996;2022-11-15T14:38:25;11.33;76.02
65573;SHT30;52214;50.940;13.996;2022-11-15T14:40:51;11.15;76.62
65573;SHT30;52214;50.940;13.996;2022-11-15T14:43:17;11.10;76.97
65573;SHT30;52214;50.940;13.996;2022-11-15T14:45:42;10.53;78.66
65573;SHT30;52214;50.940;13.996;2022-11-15T14:48:08;9.94;80.32
65573;SHT30;52214;50.940;13.996;2022-11-15T14:50:34;9.51;81.55
65573;SHT30;52214;50.940;13.996;2022-11-15T14:53:00;9.05;83.39
65573;SHT30;52214;50.940;13.996;2022-11-15T14:55:31;8.42;85.33
65573;SHT30;52214;50.940;13.996;2022-11-15T14:57:59;7.99;87.46
65573;SHT30;52214;50.940;13.996;2022-11-15T15:00:27;7.60;89.49
65573;SHT30;52214;50.940;13.996;2022-11-15T15:02:53;7.49;89.77
65573;SHT30;52214;50.940;13.996;2022-11-15T15:07:47;7.07;91.35
65573;SHT30;52214;50.940;13.996;2022-11-15T15:10:14;6.83;92.22
65573;SHT30;52214;50.940;13.996;2022-11-15T15:12:40;6.77;93.04
65573;SHT30;52214;50.940;13.996;2022-11-15T15:15:09;6.60;93.38
65573;SHT30;52214;50.940;13.996;2022-11-15T15:17:37;6.43;94.06
65573;SHT30;52214;50.940;13.996;2022-11-15T15:20:03;6.38;94.38
65573;SHT30;52214;50.940;13.996;2022-11-15T15:22:29;6.24;94.76
65573;SHT30;52214;50.940;13.996;2022-11-15T15:24:55;6.17;95.42
65573;SHT30;52214;50.940;13.996;2022-11-15T15:27:21;6.14;95.65
65573;SHT30;52214;50.940;13.996;2022-11-15T15:29:46;6.11;95.86
65573;SHT30;52214;50.940;13.996;2022-11-15T15:32:12;6.00;95.91
65573;SHT30;52214;50.940;13.996;2022-11-15T15:34:38;6.05;96.08
65573;SHT30;52214;50.940;13.996;2022-11-15T15:37:24;5.93;96.43
65573;SHT30;52214;50.940;13.996;2022-11-15T15:39:54;5.89;96.56
65573;SHT30;52214;50.940;13.996;2022-11-15T15:42:21;5.80;96.82
65573;SHT30;52214;50.940;13.996;2022-11-15T15:44:48;5.81;96.60
65573;SHT30;52214;50.940;13.996;2022-11-15T15:47:20;5.69;97.03
65573;SHT30;52214;50.940;13.996;2022-11-15T15:49:46;5.62;97.34
65573;SHT30;52214;50.940;13.996;2022-11-15T15:52:12;5.59;97.35
65573;SHT30;52214;50.940;13.996;2022-11-15T15:54:38;5.46;97.89
65573;SHT30;52214;50.940;13.996;2022-11-15T15:57:05;5.55;97.86
65573;SHT30;52214;50.940;13.996;2022-11-15T15:59:31;5.49;98.00
65573;SHT30;52214;50.940;13.996;2022-11-15T16:02:03;5.46;98.20
65573;SHT30;52214;50.940;13.996;2022-11-15T16:04:29;5.43;97.92
65573;SHT30;52214;50.940;13.996;2022-11-15T16:06:59;5.42;98.46
65573;SHT30;52214;50.940;13.996;2022-11-15T16:09:25;5.31;98.92
65573;SHT30;52214;50.940;13.996;2022-11-15T16:12:11;5.31;98.50
65573;SHT30;52214;50.940;13.996;2022-11-15T16:14:37;5.35;98.64
65573;SHT30;52214;50.940;13.996;2022-11-15T16:17:03;5.28;98.70
65573;SHT30;52214;50.940;13.996;2022-11-15T16:19:28;5.29;98.95
65573;SHT30;52214;50.940;13.996;2022-11-15T16:21:54;5.27;99.03
65573;SHT30;52214;50.940;13.996;2022-11-15T16:24:20;5.21;99.00
65573;SHT30;52214;50.940;13.996;2022-11-15T16:26:47;5.17;98.97
65573;SHT30;52214;50.940;13.996;2022-11-15T16:29:13;5.12;99.10
65573;SHT30;52214;50.940;13.996;2022-11-15T16:31:39;5.02;99.40
65573;SHT30;52214;50.940;13.996;2022-11-15T16:34:05;5.01;99.97
65573;SHT30;52214;50.940;13.996;2022-11-15T16:36:34;5.01;99.93
65573;SHT30;52214;50.940;13.996;2022-11-15T16:39:01;4.95;99.99
65573;SHT30;52214;50.940;13.996;2022-11-15T16:41:30;5.04;99.99
65573;SHT30;52214;50.940;13.996;2022-11-15T16:43:55;5.01;99.87
65573;SHT30;52214;50.940;13.996;2022-11-15T16:46:23;4.94;99.99
65573;SHT30;52214;50.940;13.996;2022-11-15T16:48:49;4.90;99.99
65573;SHT30;52214;50.940;13.996;2022-11-15T16:51:16;4.90;99.99
65573;SHT30;52214;50.940;13.996;2022-11-15T16:53:42;4.85;99.99
65573;SHT30;52214;50.940;13.996;2022-11-15T16:58:48;4.94;99.84
65573;SHT30;52214;50.940;13.996;2022-11-15T17:01:29;4.88;99.99
65573;SHT30;52214;50.940;13.996;2022-11-15T17:03:56;4.85;99.99
65573;SHT30;52214;50.940;13.996;2022-11-15T17:06:23;4.88;99.99
65573;SHT30;52214;50.940;13.996;2022-11-15T17:08:49;4.85;99.99
65573;SHT30;52214;50.940;13.996;2022-11-15T17:11:17;4.81;99.99
65573;SHT30;52214;50.940;13.996;2022-11-15T17:13:43;4.77;99.99
65573;SHT30;52214;50.940;13.996;2022-11-15T17:16:14;4.76;99.99
65573;SHT30;52214;50.940;13.996;2022-11-15T17:18:40;4.77;99.99
65573;SHT30;52214;50.940;13.996;2022-11-15T17:21:13;4.72;99.99
65573;SHT30;52214;50.940;13.996;2022-11-15T17:23:39;4.73;99.99
65573;SHT30;52214;50.940;13.996;2022-11-15T17:26:05;4.72;99.99
65573;SHT30;52214;50.940;13.996;2022-11-15T17:28:31;4.57;99.99
65573;SHT30;52214;50.940;13.996;2022-11-15T17:30:58;4.62;99.99
65573;SHT30;52214;50.940;13.996;2022-11-15T17:33:24;4.55;99.99
65573;SHT30;52214;50.940;13.996;2022-11-15T17:36:01;4.60;99.99
65573;SHT30;52214;50.940;13.996;2022-11-15T17:38:28;4.55;99.99
65573;SHT30;52214;50.940;13.996;2022-11-15T17:41:13;4.50;99.99
65573;SHT30;52214;50.940;13.996;2022-11-15T17:43:39;4.55;99.99
65573;SHT30;52214;50.940;13.996;2022-11-15T17:46:07;4.53;99.99